createdAt,value
2023-02-10T15:01:34.312Z,12.20
2023-02-10T15:02:34.088Z,16.20
2023-02-10T15:03:34.037Z,17.30
2023-02-10T15:04:33.993Z,18.50
2023-02-10T15:05:33.936Z,19.60
2023-02-10T15:06:33.880Z,19.10
2023-02-10T15:07:33.839Z,19.60
2023-02-10T15:08:33.786Z,19.70
2023-02-10T15:09:33.748Z,20.40
2023-02-10T15:10:33.695Z,19.90
2023-02-10T15:11:33.680Z,20.30
2023-02-10T15:12:39.425Z,20.50
2023-02-10T15:13:33.567Z,19.60
2023-02-10T15:14:33.541Z,21.40
2023-02-10T15:15:33.460Z,20.00
2023-02-10T15:16:33.456Z,20.00
2023-02-10T15:17:33.388Z,20.70
2023-02-10T15:18:33.320Z,20.30
2023-02-10T15:19:33.270Z,20.00
2023-02-10T15:20:33.222Z,20.80
2023-02-10T15:21:33.176Z,20.70
2023-02-10T15:22:33.134Z,19.40
2023-02-10T15:23:34.026Z,19.50
2023-02-10T15:24:33.054Z,19.10
2023-02-10T15:25:32.993Z,18.90
2023-02-10T15:26:32.947Z,19.80
2023-02-10T15:27:32.927Z,19.30
2023-02-10T15:28:32.912Z,19.80
2023-02-10T15:29:32.811Z,19.20
2023-02-10T15:30:32.922Z,19.40
2023-02-10T15:31:32.848Z,19.90
2023-02-10T15:32:32.672Z,19.30
2023-02-10T15:33:32.651Z,19.70
2023-02-10T15:34:32.585Z,19.00
2023-02-10T15:36:32.495Z,19.60
2023-02-10T15:37:32.446Z,19.10
2023-02-10T15:38:32.400Z,19.20
2023-02-10T15:39:32.403Z,19.80
2023-02-10T15:40:32.319Z,19.90
2023-02-10T15:41:32.341Z,20.20
2023-02-10T15:42:32.226Z,18.70
2023-02-10T15:43:32.260Z,19.40
2023-02-10T15:44:32.186Z,18.90
2023-02-10T15:45:32.085Z,19.60
2023-02-10T15:46:32.195Z,19.70
2023-02-10T15:47:31.993Z,20.10
2023-02-10T15:48:38.852Z,19.60
2023-02-10T15:49:31.924Z,19.30
2023-02-10T15:50:31.862Z,18.80
2023-02-10T15:51:31.814Z,19.40
2023-02-10T15:52:31.867Z,19.90
2023-02-10T15:53:31.798Z,18.30
2023-02-10T15:54:31.692Z,18.30
2023-02-10T15:55:31.663Z,18.90
2023-02-10T15:56:31.593Z,19.00
2023-02-10T15:57:31.548Z,19.00
2023-02-10T15:58:31.527Z,18.70
2023-02-10T15:59:31.455Z,18.90
2023-02-10T16:00:31.422Z,18.60
2023-02-10T16:01:31.419Z,18.90
2023-02-10T16:02:31.427Z,19.10
2023-02-10T16:03:31.303Z,18.30
2023-02-10T16:04:31.256Z,18.90
2023-02-10T16:05:31.210Z,19.10
2023-02-10T16:06:31.151Z,18.30
2023-02-10T16:07:31.098Z,17.60
2023-02-10T16:08:31.061Z,18.60
2023-02-10T16:09:31.008Z,18.10
2023-02-10T16:10:30.967Z,18.60
2023-02-10T16:11:30.923Z,17.80
2023-02-10T16:12:30.878Z,18.00
2023-02-10T16:13:30.834Z,18.50
2023-02-10T16:14:30.790Z,17.60
2023-02-10T16:15:30.743Z,17.50
2023-02-10T16:16:30.719Z,17.20
2023-02-10T16:17:30.653Z,17.80
2023-02-10T16:18:30.604Z,17.20
2023-02-10T16:19:30.560Z,15.90
2023-02-10T16:20:30.514Z,16.80
2023-02-10T16:21:30.489Z,17.10
2023-02-10T16:22:30.427Z,16.80
2023-02-10T16:23:30.384Z,16.60
2023-02-10T16:24:30.336Z,17.20
2023-02-10T16:25:30.619Z,17.00
2023-02-10T16:26:30.248Z,16.80
2023-02-10T16:27:30.212Z,17.20
2023-02-10T16:28:30.192Z,16.50
2023-02-10T16:29:30.107Z,15.70
2023-02-10T16:30:30.131Z,16.30
2023-02-10T16:31:30.084Z,15.70
2023-02-10T16:32:29.985Z,17.20
2023-02-10T16:33:29.924Z,16.00
2023-02-10T16:34:29.903Z,15.30
2023-02-10T16:35:29.859Z,15.60
2023-02-10T16:36:29.789Z,15.40
2023-02-10T16:37:29.776Z,15.40
2023-02-10T16:38:29.701Z,16.40
2023-02-10T16:39:29.650Z,15.70
2023-02-10T16:40:29.608Z,15.90
2023-02-10T16:41:29.566Z,16.30
2023-02-10T16:42:29.517Z,15.70
2023-02-10T16:43:29.468Z,15.30
2023-02-10T16:44:29.424Z,15.20
2023-02-10T16:45:29.376Z,16.20
2023-02-10T16:46:29.345Z,15.90
2023-02-10T16:47:29.286Z,15.70
2023-02-10T16:48:29.243Z,16.10
2023-02-10T16:49:29.194Z,15.70
2023-02-10T16:50:29.148Z,16.00
2023-02-10T16:51:29.141Z,15.30
2023-02-10T16:52:29.063Z,15.50
2023-02-10T16:53:29.032Z,15.50
2023-02-10T16:54:28.967Z,15.70
2023-02-10T16:55:28.931Z,15.50
2023-02-10T16:56:28.890Z,15.40
2023-02-10T16:57:28.833Z,15.20
2023-02-10T16:58:28.790Z,15.10
2023-02-10T16:59:28.740Z,15.40
2023-02-10T17:00:28.696Z,15.60
2023-02-10T17:01:28.660Z,15.90
2023-02-10T17:02:28.634Z,17.10
2023-02-10T17:03:28.562Z,15.30
2023-02-10T17:04:28.518Z,16.40
2023-02-10T17:06:11.847Z,16.00
2023-02-10T17:07:11.806Z,16.20
2023-02-10T17:08:11.780Z,16.70
2023-02-10T17:09:11.731Z,16.10
2023-02-10T17:10:11.665Z,16.40
2023-02-10T17:11:11.619Z,16.50
2023-02-10T17:12:11.579Z,16.50
2023-02-10T17:13:11.532Z,16.60
2023-02-10T17:14:11.505Z,16.10
2023-02-10T17:15:11.436Z,16.40
2023-02-10T17:16:11.433Z,17.30
2023-02-10T17:17:11.351Z,16.20
2023-02-10T17:18:11.300Z,16.40
2023-02-10T17:19:11.257Z,15.70
2023-02-10T17:20:11.210Z,16.20
2023-02-10T17:21:11.179Z,16.90
2023-02-10T17:22:11.132Z,17.20
2023-02-10T17:23:11.071Z,16.20
2023-02-10T17:25:10.997Z,16.40
2023-02-10T17:26:10.936Z,15.70
2023-02-10T17:27:10.895Z,17.40
2023-02-10T17:28:10.900Z,16.30
2023-02-10T17:29:10.797Z,15.70
2023-02-10T17:30:10.771Z,16.60
2023-02-10T17:31:10.910Z,16.10
2023-02-10T17:32:10.703Z,15.40
2023-02-10T17:33:10.616Z,15.90
2023-02-10T17:34:10.569Z,16.40
2023-02-10T17:35:10.522Z,16.90
2023-02-10T17:36:10.683Z,16.60
2023-02-10T17:37:10.441Z,17.00
2023-02-10T17:38:10.392Z,16.40
2023-02-10T17:39:10.360Z,16.60
2023-02-10T17:40:10.290Z,16.90
2023-02-10T17:41:10.280Z,16.10
2023-02-10T17:42:10.201Z,15.80
2023-02-10T17:43:10.197Z,16.60
2023-02-10T17:44:10.104Z,16.10
2023-02-10T17:45:10.061Z,17.00
2023-02-10T17:46:10.012Z,17.30
2023-02-10T17:47:09.975Z,16.60
2023-02-10T17:48:09.920Z,16.00
2023-02-10T17:49:09.915Z,16.50
2023-02-10T17:50:09.829Z,16.00
2023-02-10T17:51:09.791Z,17.40
2023-02-10T17:52:09.742Z,16.60
2023-02-10T17:53:09.706Z,16.20
2023-02-10T17:54:09.662Z,17.60
2023-02-10T17:55:20.716Z,16.50
2023-02-10T17:56:09.581Z,17.90
2023-02-10T17:57:09.531Z,17.20
2023-02-10T17:58:09.466Z,18.20
2023-02-10T17:59:09.418Z,17.20
2023-02-10T18:00:09.372Z,17.00
2023-02-10T18:01:09.424Z,17.30
2023-02-10T18:02:09.342Z,17.70
2023-02-10T18:03:09.243Z,16.90
2023-02-10T18:04:09.193Z,17.70
2023-02-10T18:05:09.642Z,18.40
2023-02-10T18:06:09.100Z,19.60
2023-02-10T18:07:09.052Z,18.20
2023-02-10T18:08:09.005Z,18.70
2023-02-10T18:09:08.960Z,18.00
2023-02-10T18:10:08.938Z,18.90
2023-02-10T18:11:08.892Z,18.60
2023-02-10T18:12:08.831Z,18.20
2023-02-10T18:13:08.860Z,19.10
2023-02-10T18:14:08.732Z,18.80
2023-02-10T18:15:08.684Z,18.80
2023-02-10T18:16:08.685Z,18.30
2023-02-10T18:17:09.785Z,18.30
2023-02-10T18:18:08.540Z,19.50
2023-02-10T18:19:08.497Z,19.30
2023-02-10T18:20:08.462Z,20.10
2023-02-10T18:21:08.410Z,19.40
2023-02-10T18:22:08.376Z,18.70
2023-02-10T18:23:08.319Z,19.70
2023-02-10T18:24:08.268Z,19.50
2023-02-10T18:25:08.221Z,20.00
2023-02-10T18:26:08.180Z,18.70
2023-02-10T18:27:08.145Z,18.70
2023-02-10T18:28:08.081Z,19.00
2023-02-10T18:29:08.056Z,19.20
2023-02-10T18:30:07.990Z,19.80
2023-02-10T18:31:08.001Z,19.20
2023-02-10T18:32:07.965Z,19.40
2023-02-10T18:33:07.883Z,19.30
2023-02-10T18:34:07.836Z,19.20
2023-02-10T18:35:07.791Z,19.70
2023-02-10T18:36:07.720Z,19.80
2023-02-10T18:37:07.683Z,19.40
2023-02-10T18:38:07.621Z,20.50
2023-02-10T18:39:07.579Z,20.00
2023-02-10T18:40:07.528Z,20.90
2023-02-10T18:41:07.504Z,20.10
2023-02-10T18:42:07.440Z,20.70
2023-02-10T18:43:07.393Z,19.80
2023-02-10T18:44:07.344Z,20.90
2023-02-10T18:45:07.320Z,20.70
2023-02-10T18:46:07.648Z,20.10
2023-02-10T18:47:07.208Z,20.10
2023-02-10T18:48:07.158Z,20.50
2023-02-10T18:49:07.113Z,20.40
2023-02-10T18:50:07.069Z,20.00
2023-02-10T18:51:07.021Z,19.70
2023-02-10T18:52:06.975Z,19.00
2023-02-10T18:53:06.934Z,19.80
2023-02-10T18:54:06.894Z,20.50
2023-02-10T18:55:06.864Z,20.70
2023-02-10T18:56:06.792Z,20.20
2023-02-10T18:57:06.748Z,19.90
2023-02-10T18:58:06.698Z,21.10
2023-02-10T18:59:06.653Z,20.30
2023-02-10T19:00:06.604Z,20.20
2023-02-10T19:01:06.670Z,20.40
2023-02-10T19:02:06.543Z,20.20
2023-02-10T19:03:06.474Z,20.80
2023-02-10T19:04:06.423Z,20.80
2023-02-10T19:05:06.382Z,20.30
2023-02-10T19:06:06.334Z,21.80
2023-02-10T19:07:06.287Z,21.70
2023-02-10T19:08:06.250Z,21.60
2023-02-10T19:09:06.205Z,21.50
2023-02-10T19:10:06.158Z,22.60
2023-02-10T19:11:06.105Z,21.60
2023-02-10T19:13:06.011Z,21.80
2023-02-10T19:14:05.984Z,22.80
2023-02-10T19:15:05.934Z,21.70
2023-02-10T19:16:05.888Z,22.60
2023-02-10T19:17:05.846Z,22.10
2023-02-10T19:18:05.784Z,23.10
2023-02-10T19:19:05.740Z,22.50
2023-02-10T19:20:05.706Z,23.20
2023-02-10T19:21:05.643Z,23.10
2023-02-10T19:22:05.601Z,22.70
2023-02-10T19:24:05.504Z,23.90
2023-02-10T19:25:05.462Z,22.50
2023-02-10T19:26:05.413Z,23.80
2023-02-10T19:27:05.374Z,23.50
2023-02-10T19:28:05.335Z,23.60
2023-02-10T19:29:05.276Z,23.30
2023-02-10T19:30:05.233Z,22.40
2023-02-10T19:31:05.356Z,23.30
2023-02-10T19:32:05.142Z,23.50
2023-02-10T19:33:05.115Z,22.80
2023-02-10T19:34:05.044Z,23.70
2023-02-10T19:35:05.007Z,23.60
2023-02-10T19:38:04.862Z,23.70
2023-02-10T19:39:04.825Z,23.50
2023-02-10T19:40:04.766Z,24.60
2023-02-10T19:41:04.714Z,25.40
2023-02-10T19:42:04.675Z,25.40
2023-02-10T19:43:04.633Z,24.90
2023-02-10T19:44:04.574Z,23.80
2023-02-10T19:45:04.537Z,24.70
2023-02-10T19:46:04.526Z,25.10
2023-02-10T19:47:04.443Z,24.60
2023-02-10T19:48:04.401Z,24.80
2023-02-10T19:49:04.370Z,24.70
2023-02-10T19:50:04.301Z,24.60
2023-02-10T19:51:04.250Z,24.60
2023-02-10T19:52:04.202Z,24.60
2023-02-10T19:53:04.155Z,25.50
2023-02-10T19:54:04.113Z,24.30
2023-02-10T19:55:04.066Z,24.20
2023-02-10T19:56:04.029Z,24.50
2023-02-10T19:57:03.969Z,24.70
2023-02-10T19:58:03.931Z,24.50
2023-02-10T19:59:03.875Z,24.00
2023-02-10T20:00:03.855Z,24.00
2023-02-10T20:01:03.820Z,23.20
2023-02-10T20:02:03.736Z,22.80
2023-02-10T20:03:03.789Z,24.60
2023-02-10T20:04:03.641Z,23.90
2023-02-10T20:05:03.663Z,25.00
2023-02-10T20:06:03.548Z,24.20
2023-02-10T20:07:03.501Z,24.30
2023-02-10T20:08:03.471Z,24.40
2023-02-10T20:09:03.411Z,24.00
2023-02-10T20:10:03.372Z,24.30
2023-02-10T20:11:03.348Z,23.80
2023-02-10T20:12:03.270Z,23.80
2023-02-10T20:13:03.224Z,23.90
2023-02-10T20:14:03.187Z,23.60
2023-02-10T20:15:03.137Z,24.80
2023-02-10T20:16:03.186Z,24.10
2023-02-10T20:17:03.041Z,23.60
2023-02-10T20:18:02.997Z,23.80
2023-02-10T20:19:02.953Z,23.30
2023-02-10T20:20:02.907Z,23.80
2023-02-10T20:21:02.873Z,25.50
2023-02-10T20:22:02.825Z,24.40
2023-02-10T20:23:02.763Z,24.60
2023-02-10T20:24:02.712Z,23.90
2023-02-10T20:25:02.670Z,23.50
2023-02-10T20:26:02.621Z,24.90
2023-02-10T20:27:02.574Z,24.60
2023-02-10T20:28:02.559Z,24.50
2023-02-10T20:29:02.500Z,23.70
2023-02-10T20:30:02.439Z,24.40
2023-02-10T20:31:02.504Z,25.10
2023-02-10T20:32:02.798Z,24.30
2023-02-10T20:33:02.350Z,25.20
2023-02-10T20:34:02.267Z,23.90
2023-02-10T20:35:02.215Z,24.60
2023-02-10T20:36:02.155Z,24.80
2023-02-10T20:37:02.129Z,24.30
2023-02-10T20:38:02.069Z,24.60
2023-02-10T20:39:02.036Z,25.60
2023-02-10T20:40:01.973Z,23.60
2023-02-10T20:41:01.932Z,24.80
2023-02-10T20:42:01.881Z,24.50
2023-02-10T20:43:01.853Z,24.70
2023-02-10T20:44:01.791Z,23.90
2023-02-10T20:45:01.744Z,24.50
2023-02-10T20:46:01.749Z,24.80
2023-02-10T20:47:01.657Z,24.60
2023-02-10T20:48:01.618Z,24.10
2023-02-10T20:49:01.580Z,25.60
2023-02-10T20:50:01.547Z,25.10
2023-02-10T20:51:01.551Z,24.50
2023-02-10T20:52:01.420Z,24.70
2023-02-10T20:53:01.394Z,22.80
2023-02-10T20:54:01.345Z,24.70
2023-02-10T20:55:01.290Z,23.70
2023-02-10T20:56:01.237Z,24.90
2023-02-10T20:57:01.208Z,24.80
2023-02-10T20:58:01.148Z,25.50
2023-02-10T20:59:01.115Z,24.30
2023-02-10T21:00:01.059Z,25.70
2023-02-10T21:01:01.011Z,25.50
2023-02-10T21:02:01.059Z,24.90
2023-02-10T21:03:00.995Z,26.10
2023-02-10T21:04:00.872Z,26.90
2023-02-10T21:05:00.839Z,24.80
2023-02-10T21:06:00.792Z,25.40
2023-02-10T21:07:00.729Z,25.30
2023-02-10T21:08:00.685Z,26.10
2023-02-10T21:09:00.656Z,24.50
2023-02-10T21:10:00.593Z,25.80
2023-02-10T21:11:00.544Z,26.70
2023-02-10T21:12:00.500Z,25.80
2023-02-10T21:13:00.776Z,25.50
2023-02-10T21:14:00.405Z,25.80
2023-02-10T21:15:00.360Z,25.30
2023-02-10T21:16:00.429Z,25.30
2023-02-10T21:17:00.289Z,26.60
2023-02-10T21:19:00.177Z,25.90
2023-02-10T21:20:00.805Z,25.00
2023-02-10T21:21:00.119Z,26.10
2023-02-10T21:22:00.035Z,25.60
2023-02-10T21:22:59.983Z,25.70
2023-02-10T21:23:59.938Z,25.30
2023-02-10T21:25:00.224Z,25.50
2023-02-10T21:25:59.864Z,25.60
2023-02-10T21:26:59.809Z,25.10
2023-02-10T21:27:59.806Z,25.10
2023-02-10T21:28:59.731Z,26.80
2023-02-10T21:29:59.663Z,25.40
2023-02-10T21:30:59.717Z,26.40
2023-02-10T21:31:59.569Z,25.40
2023-02-10T21:32:59.519Z,25.90
2023-02-10T21:33:59.478Z,25.60
2023-02-10T21:34:59.454Z,25.00
2023-02-10T21:35:59.398Z,26.30
2023-02-10T21:36:59.334Z,27.30
2023-02-10T21:37:59.339Z,26.40
2023-02-10T21:38:59.266Z,25.60
2023-02-10T21:39:59.193Z,27.00
2023-02-10T21:40:59.169Z,24.60
2023-02-10T21:41:59.102Z,25.50
2023-02-10T21:42:59.056Z,25.30
2023-02-10T21:43:59.030Z,26.60
2023-02-10T21:44:58.965Z,26.30
2023-02-10T21:45:58.923Z,25.50
2023-02-10T21:46:59.024Z,25.20
2023-02-10T21:47:58.823Z,25.00
2023-02-10T21:48:58.783Z,26.80
2023-02-10T21:49:58.735Z,25.60
2023-02-10T21:50:59.878Z,26.80
2023-02-10T21:51:58.641Z,26.20
2023-02-10T21:52:58.591Z,27.20
2023-02-10T21:53:58.555Z,26.50
2023-02-10T21:54:58.525Z,26.10
2023-02-10T21:55:58.454Z,26.30
2023-02-10T21:56:58.430Z,26.20
2023-02-10T21:57:58.382Z,26.30
2023-02-10T21:58:58.317Z,26.20
2023-02-10T21:59:58.594Z,26.10
2023-02-10T22:00:58.229Z,26.50
2023-02-10T22:01:58.350Z,26.70
2023-02-10T22:02:58.200Z,26.80
2023-02-10T22:03:58.085Z,25.40
2023-02-10T22:04:58.038Z,26.30
2023-02-10T22:05:57.990Z,26.90
2023-02-10T22:06:57.945Z,26.40
2023-02-10T22:07:57.898Z,25.90
2023-02-10T22:08:57.854Z,25.70
2023-02-10T22:09:57.806Z,26.70
2023-02-10T22:10:57.757Z,26.40
2023-02-10T22:11:57.723Z,26.60
2023-02-10T22:12:57.694Z,26.60
2023-02-10T22:13:57.646Z,26.00
2023-02-10T22:14:57.576Z,26.40
2023-02-10T22:15:57.538Z,25.70
2023-02-10T22:16:57.478Z,26.50
2023-02-10T22:17:57.433Z,26.50
2023-02-10T22:18:57.388Z,26.70
2023-02-10T22:19:57.337Z,26.50
2023-02-10T22:20:57.302Z,26.70
2023-02-10T22:21:57.254Z,27.70
2023-02-10T22:22:57.199Z,26.60
2023-02-10T22:23:57.256Z,25.80
2023-02-10T22:24:57.117Z,26.10
2023-02-10T22:25:57.064Z,26.20
2023-02-10T22:26:57.015Z,26.20
2023-02-10T22:27:57.042Z,25.90
2023-02-10T22:28:56.952Z,26.10
2023-02-10T22:29:56.878Z,26.20
2023-02-10T22:30:56.927Z,25.00
2023-02-10T22:31:56.905Z,25.90
2023-02-10T22:32:56.739Z,26.30
2023-02-10T22:33:56.689Z,26.90
2023-02-10T22:34:56.652Z,25.60
2023-02-10T22:35:56.605Z,25.40
2023-02-10T22:36:56.555Z,26.30
2023-02-10T22:37:56.514Z,25.40
2023-02-10T22:38:56.468Z,26.10
2023-02-10T22:39:56.427Z,25.40
2023-02-10T22:40:56.366Z,25.60
2023-02-10T22:41:56.321Z,26.80
2023-02-10T22:42:58.279Z,26.20
2023-02-10T22:43:56.244Z,26.50
2023-02-10T22:44:56.205Z,25.80
2023-02-10T22:45:56.152Z,26.10
2023-02-10T22:46:56.094Z,25.30
2023-02-10T22:47:56.047Z,27.30
2023-02-10T22:48:55.997Z,26.10
2023-02-10T22:49:57.203Z,27.20
2023-02-10T22:50:55.908Z,26.50
2023-02-10T22:51:55.856Z,25.50
2023-02-10T22:52:55.814Z,25.80
2023-02-10T22:53:55.765Z,26.00
2023-02-10T22:54:55.720Z,26.10
2023-02-10T22:55:55.670Z,25.70
2023-02-10T22:56:55.626Z,26.40
2023-02-10T22:57:55.578Z,26.00
2023-02-10T22:58:55.537Z,26.60
2023-02-10T22:59:55.486Z,25.80
2023-02-10T23:00:55.464Z,25.00
2023-02-10T23:01:57.782Z,25.00
2023-02-10T23:02:55.351Z,26.40
2023-02-10T23:03:55.303Z,24.90
2023-02-10T23:05:55.214Z,23.80
2023-02-10T23:06:55.163Z,25.10
2023-02-10T23:07:55.114Z,23.50
2023-02-10T23:08:55.072Z,24.80
2023-02-10T23:09:55.023Z,25.10
2023-02-10T23:10:54.975Z,24.50
2023-02-10T23:11:54.933Z,23.80
2023-02-10T23:12:54.890Z,24.20
